createdAt,value
2019-03-02T00:00:07.374Z,3.90
2019-03-02T00:01:05.329Z,3.80
2019-03-02T00:02:08.092Z,3.80
2019-03-02T00:03:07.567Z,3.80
2019-03-02T00:04:09.447Z,3.80
2019-03-02T00:05:04.891Z,3.80
2019-03-02T00:06:07.551Z,3.90
2019-03-02T00:07:07.939Z,3.80
2019-03-02T00:08:15.270Z,3.80
2019-03-02T00:09:07.824Z,3.80
2019-03-02T00:10:06.528Z,3.80
2019-03-02T00:11:07.494Z,3.90
2019-03-02T00:12:05.417Z,3.80
2019-03-02T00:13:07.385Z,3.80
2019-03-02T00:14:07.311Z,3.80
2019-03-02T00:15:07.878Z,3.80
2019-03-02T00:16:07.530Z,3.80
2019-03-02T00:17:05.513Z,3.80
2019-03-02T00:18:08.287Z,3.80
2019-03-02T00:19:06.604Z,3.80
2019-03-02T00:20:04.725Z,3.80
2019-03-02T00:21:04.858Z,3.80
2019-03-02T00:22:06.735Z,3.80
2019-03-02T00:23:07.471Z,3.80
2019-03-02T00:24:05.460Z,3.80
2019-03-02T00:25:05.661Z,3.80
2019-03-02T00:26:06.108Z,3.80
2019-03-02T00:27:05.247Z,3.80
2019-03-02T00:28:07.932Z,3.80
2019-03-02T00:29:07.657Z,3.80
2019-03-02T00:30:04.732Z,3.80
2019-03-02T00:31:04.970Z,3.80
2019-03-02T00:32:05.773Z,3.80
2019-03-02T00:33:07.809Z,3.80
2019-03-02T00:34:04.790Z,3.80
2019-03-02T00:35:07.143Z,3.80
2019-03-02T00:36:05.054Z,3.80
2019-03-02T00:37:07.709Z,3.80
2019-03-02T00:38:08.363Z,3.80
2019-03-02T00:39:15.532Z,3.80
2019-03-02T00:40:04.890Z,3.80
2019-03-02T00:41:06.892Z,3.80
2019-03-02T00:42:04.747Z,3.80
2019-03-02T00:43:04.978Z,3.80
2019-03-02T00:44:05.175Z,3.90
2019-03-02T00:45:10.562Z,3.90
2019-03-02T00:46:04.979Z,3.90
2019-03-02T00:47:05.103Z,3.90
2019-03-02T00:48:07.416Z,3.90
2019-03-02T00:49:05.288Z,3.90
2019-03-02T00:50:08.156Z,3.90
2019-03-02T00:51:07.855Z,3.90
2019-03-02T00:52:05.149Z,3.90
2019-03-02T00:53:05.260Z,3.90
2019-03-02T00:54:07.591Z,3.90
2019-03-02T00:55:05.359Z,3.90
2019-03-02T00:56:07.725Z,3.90
2019-03-02T00:57:05.044Z,3.90
2019-03-02T00:58:07.702Z,3.90
2019-03-02T00:59:04.810Z,3.90
2019-03-02T01:00:04.913Z,3.90
2019-03-02T01:01:07.615Z,3.90
2019-03-02T01:02:05.785Z,3.90
2019-03-02T01:03:07.509Z,3.90
2019-03-02T01:04:05.476Z,3.90
2019-03-02T01:05:05.669Z,3.90
2019-03-02T01:06:04.788Z,3.90
2019-03-02T01:07:07.440Z,3.90
2019-03-02T01:08:07.907Z,3.90
2019-03-02T01:09:07.836Z,3.90
2019-03-02T01:10:07.608Z,3.90
2019-03-02T01:11:05.242Z,3.90
2019-03-02T01:12:05.772Z,3.90
2019-03-02T01:13:04.759Z,3.90
2019-03-02T01:14:04.902Z,3.80
2019-03-02T01:15:08.392Z,3.80
2019-03-02T01:16:05.104Z,3.80
2019-03-02T01:17:05.234Z,3.80
2019-03-02T01:18:06.561Z,3.90
2019-03-02T01:19:05.332Z,3.80
2019-03-02T01:20:05.394Z,3.80
2019-03-02T01:21:05.466Z,3.80
2019-03-02T01:22:05.582Z,3.80
2019-03-02T01:23:04.664Z,3.80
2019-03-02T01:24:04.875Z,3.80
2019-03-02T01:25:10.506Z,3.90
2019-03-02T01:26:07.761Z,3.80
2019-03-02T01:27:04.738Z,3.80
2019-03-02T01:28:06.525Z,3.80
2019-03-02T01:29:05.503Z,3.80
2019-03-02T01:30:08.352Z,3.80
2019-03-02T01:31:06.067Z,3.80
2019-03-02T01:32:05.359Z,3.80
2019-03-02T01:33:05.487Z,3.80
2019-03-02T01:34:08.260Z,3.80
2019-03-02T01:35:05.589Z,3.80
2019-03-02T01:36:07.201Z,3.80
2019-03-02T01:37:08.043Z,3.80
2019-03-02T01:38:07.303Z,3.80
2019-03-02T01:39:07.893Z,3.80
2019-03-02T01:40:12.429Z,3.80
2019-03-02T01:41:07.940Z,3.80
2019-03-02T01:42:04.931Z,3.80
2019-03-02T01:43:05.749Z,3.80
2019-03-02T01:44:05.019Z,3.80
2019-03-02T01:45:05.172Z,3.80
2019-03-02T01:46:05.304Z,3.80
2019-03-02T01:47:05.504Z,3.80
2019-03-02T01:48:05.687Z,3.80
2019-03-02T01:49:04.843Z,3.80
2019-03-02T01:50:08.581Z,3.80
2019-03-02T01:51:04.714Z,3.80
2019-03-02T01:52:04.813Z,3.80
2019-03-02T01:53:06.444Z,3.70
2019-03-02T01:54:05.328Z,3.70
2019-03-02T01:55:08.139Z,3.70
2019-03-02T01:56:06.053Z,3.70
2019-03-02T01:57:07.522Z,3.70
2019-03-02T01:58:10.713Z,3.70
2019-03-02T01:59:04.908Z,3.70
2019-03-02T02:00:05.125Z,3.70
2019-03-02T02:01:05.271Z,3.80
2019-03-02T02:02:08.042Z,3.80
2019-03-02T02:03:08.437Z,3.70
2019-03-02T02:04:05.148Z,3.80
2019-03-02T02:05:05.352Z,3.70
2019-03-02T02:06:07.279Z,3.70
2019-03-02T02:07:05.598Z,3.70
2019-03-02T02:08:07.214Z,3.70
2019-03-02T02:09:05.616Z,3.70
2019-03-02T02:10:07.205Z,3.70
2019-03-02T02:11:05.278Z,3.70
2019-03-02T02:12:07.947Z,3.70
2019-03-02T02:13:06.117Z,3.70
2019-03-02T02:14:05.093Z,3.70
2019-03-02T02:15:05.357Z,3.70
2019-03-02T02:16:06.738Z,3.70
2019-03-02T02:17:05.104Z,3.70
2019-03-02T02:18:05.204Z,3.70
2019-03-02T02:19:07.841Z,3.70
2019-03-02T02:20:04.881Z,3.70
2019-03-02T02:21:05.059Z,3.70
2019-03-02T02:22:05.216Z,3.70
2019-03-02T02:23:05.340Z,3.70
2019-03-02T02:24:08.031Z,3.80
2019-03-02T02:25:05.107Z,3.70
2019-03-02T02:26:07.594Z,3.70
2019-03-02T02:27:07.643Z,3.70
2019-03-02T02:28:05.754Z,3.70
2019-03-02T02:29:08.106Z,3.70
2019-03-02T02:30:07.304Z,3.70
2019-03-02T02:31:06.081Z,3.70
2019-03-02T02:32:04.897Z,3.70
2019-03-02T02:33:05.894Z,3.70
2019-03-02T02:34:05.263Z,3.70
2019-03-02T02:35:07.997Z,3.70
2019-03-02T02:36:04.989Z,3.70
2019-03-02T02:37:05.202Z,3.70
2019-03-02T02:38:11.051Z,3.70
2019-03-02T02:39:04.788Z,3.70
2019-03-02T02:40:07.918Z,3.70
2019-03-02T02:41:08.055Z,3.70
2019-03-02T02:42:06.633Z,3.70
2019-03-02T02:43:04.988Z,3.70
2019-03-02T02:44:07.743Z,3.70
2019-03-02T02:45:10.956Z,3.70
2019-03-02T02:46:05.251Z,3.60
2019-03-02T02:47:06.994Z,3.60
2019-03-02T02:48:05.492Z,3.60
2019-03-02T02:49:05.218Z,3.70
2019-03-02T02:50:07.849Z,3.60
2019-03-02T02:51:09.625Z,3.60
2019-03-02T02:52:05.290Z,3.60
2019-03-02T02:53:06.778Z,3.70
2019-03-02T02:54:07.979Z,3.60
2019-03-02T02:55:07.451Z,3.70
2019-03-02T02:56:05.611Z,3.70
2019-03-02T02:57:04.773Z,3.70
2019-03-02T02:58:05.066Z,3.70
2019-03-02T02:59:05.269Z,3.60
2019-03-02T03:00:05.552Z,3.70
2019-03-02T03:01:04.715Z,3.70
2019-03-02T03:02:06.259Z,3.60
2019-03-02T03:03:04.877Z,3.70
2019-03-02T03:04:07.491Z,3.70
2019-03-02T03:05:09.978Z,3.70
2019-03-02T03:06:05.194Z,3.60
2019-03-02T03:07:07.052Z,3.60
2019-03-02T03:08:07.405Z,3.70
2019-03-02T03:09:09.534Z,3.70
2019-03-02T03:10:07.972Z,3.70
2019-03-02T03:11:06.521Z,3.70
2019-03-02T03:12:05.273Z,3.70
2019-03-02T03:13:05.457Z,3.70
2019-03-02T03:14:05.577Z,3.70
2019-03-02T03:15:04.808Z,3.70
2019-03-02T03:16:04.884Z,3.70
2019-03-02T03:17:07.584Z,3.70
2019-03-02T03:18:06.881Z,3.70
2019-03-02T03:19:05.408Z,3.70
2019-03-02T03:20:10.257Z,3.70
2019-03-02T03:21:07.321Z,3.70
2019-03-02T03:22:07.166Z,3.80
2019-03-02T03:23:05.086Z,3.70
2019-03-02T03:24:05.455Z,3.70
2019-03-02T03:25:08.143Z,3.70
2019-03-02T03:26:07.644Z,3.80
2019-03-02T03:27:08.818Z,3.70
2019-03-02T03:28:08.042Z,3.70
2019-03-02T03:29:09.513Z,3.70
2019-03-02T03:30:10.275Z,3.70
2019-03-02T03:31:05.389Z,3.70
2019-03-02T03:32:08.870Z,3.70
2019-03-02T03:33:05.325Z,3.80
2019-03-02T03:34:08.054Z,3.80
2019-03-02T03:35:15.176Z,3.80
2019-03-02T03:36:05.298Z,3.80
2019-03-02T03:37:08.250Z,3.80
2019-03-02T03:38:05.432Z,3.80
2019-03-02T03:39:12.771Z,3.80
2019-03-02T03:40:05.007Z,3.80
2019-03-02T03:41:06.502Z,3.80
2019-03-02T03:42:07.373Z,3.80
2019-03-02T03:43:08.011Z,3.80
2019-03-02T03:44:07.798Z,3.80
2019-03-02T03:45:05.841Z,3.80
2019-03-02T03:46:05.110Z,3.80
2019-03-02T03:47:09.356Z,3.80
2019-03-02T03:48:05.471Z,3.80
2019-03-02T03:49:07.242Z,3.80
2019-03-02T03:50:09.083Z,3.80
2019-03-02T03:51:05.354Z,3.80
2019-03-02T03:52:08.987Z,3.80
2019-03-02T03:53:04.808Z,3.80
2019-03-02T03:54:06.697Z,3.80
2019-03-02T03:55:07.513Z,3.80
2019-03-02T03:56:05.672Z,3.80
2019-03-02T03:57:04.857Z,3.80
2019-03-02T03:58:05.005Z,3.80
2019-03-02T03:59:05.223Z,3.80
2019-03-02T04:00:10.547Z,3.80
2019-03-02T04:01:08.006Z,3.80
2019-03-02T04:02:05.094Z,3.80
2019-03-02T04:03:08.784Z,3.80
2019-03-02T04:04:04.761Z,3.80
2019-03-02T04:05:08.443Z,3.80
2019-03-02T04:06:04.913Z,3.80
2019-03-02T04:07:06.209Z,3.80
2019-03-02T04:08:07.539Z,3.80
2019-03-02T04:09:09.722Z,3.80
2019-03-02T04:10:05.182Z,3.80
2019-03-02T04:11:05.866Z,3.80
2019-03-02T04:12:06.387Z,3.80
2019-03-02T04:13:06.376Z,3.80
2019-03-02T04:14:05.595Z,3.80
2019-03-02T04:15:07.196Z,3.80
2019-03-02T04:16:05.153Z,3.80
2019-03-02T04:17:07.972Z,3.80
2019-03-02T04:18:05.039Z,3.80
2019-03-02T04:19:07.736Z,3.80
2019-03-02T04:20:07.908Z,3.80
2019-03-02T04:21:08.127Z,3.80
2019-03-02T04:22:06.231Z,3.80
2019-03-02T04:23:07.485Z,3.80
2019-03-02T04:24:05.515Z,3.80
2019-03-02T04:25:05.662Z,3.80
2019-03-02T04:26:07.388Z,3.80
2019-03-02T04:27:10.915Z,3.80
2019-03-02T04:28:04.713Z,3.80
2019-03-02T04:29:09.677Z,3.80
2019-03-02T04:30:05.502Z,3.80
2019-03-02T04:31:08.995Z,3.80
2019-03-02T04:32:07.921Z,3.90
2019-03-02T04:33:05.813Z,3.80
2019-03-02T04:34:05.477Z,3.90
2019-03-02T04:35:05.718Z,3.90
2019-03-02T04:36:09.349Z,3.80
2019-03-02T04:37:10.153Z,3.80
2019-03-02T04:38:05.198Z,3.80
2019-03-02T04:39:05.368Z,3.80
2019-03-02T04:40:07.513Z,3.70
2019-03-02T04:41:08.041Z,3.70
2019-03-02T04:42:05.013Z,3.70
2019-03-02T04:43:07.670Z,3.70
2019-03-02T04:44:07.330Z,3.70
2019-03-02T04:45:05.916Z,3.70
2019-03-02T04:46:07.633Z,3.70
2019-03-02T04:47:07.168Z,3.70
2019-03-02T04:48:05.174Z,3.70
2019-03-02T04:49:05.340Z,3.70
2019-03-02T04:50:05.183Z,3.70
2019-03-02T04:51:07.835Z,3.70
2019-03-02T04:52:07.305Z,3.70
2019-03-02T04:53:05.265Z,3.70
2019-03-02T04:54:05.432Z,3.70
2019-03-02T04:55:05.569Z,3.70
2019-03-02T04:56:04.798Z,3.70
2019-03-02T04:57:04.921Z,3.70
2019-03-02T04:58:05.134Z,3.70
2019-03-02T04:59:05.531Z,3.70
2019-03-02T05:00:07.208Z,3.70
2019-03-02T05:01:06.836Z,3.70
2019-03-02T05:02:07.258Z,3.70
2019-03-02T05:03:07.853Z,3.70
2019-03-02T05:04:04.969Z,3.80
2019-03-02T05:05:08.244Z,3.70
2019-03-02T05:06:07.770Z,3.70
2019-03-02T05:07:12.304Z,3.70
2019-03-02T05:08:06.291Z,3.70
2019-03-02T05:09:08.109Z,3.80
2019-03-02T05:10:05.115Z,3.70
2019-03-02T05:11:05.226Z,3.80
2019-03-02T05:12:05.311Z,3.80
2019-03-02T05:13:05.445Z,3.80
2019-03-02T05:14:05.514Z,3.80
2019-03-02T05:15:04.754Z,3.80
2019-03-02T05:16:04.881Z,3.80
2019-03-02T05:17:07.219Z,3.80
2019-03-02T05:18:05.381Z,3.80
2019-03-02T05:19:08.129Z,3.80
2019-03-02T05:20:06.037Z,3.80
2019-03-02T05:21:05.250Z,3.80
2019-03-02T05:22:05.350Z,3.70
2019-03-02T05:23:05.453Z,3.80
2019-03-02T05:24:08.949Z,3.70
2019-03-02T05:25:05.839Z,3.80
2019-03-02T05:26:07.730Z,3.70
2019-03-02T05:27:04.692Z,3.80
2019-03-02T05:28:07.225Z,3.70
2019-03-02T05:29:04.909Z,3.80
2019-03-02T05:30:04.980Z,3.70
2019-03-02T05:31:06.107Z,3.70
2019-03-02T05:32:05.106Z,3.80
2019-03-02T05:33:05.366Z,3.80
2019-03-02T05:34:05.879Z,3.80
2019-03-02T05:35:05.102Z,3.80
2019-03-02T05:36:07.665Z,3.80
2019-03-02T05:37:08.163Z,3.80
2019-03-02T05:38:05.125Z,3.80
2019-03-02T05:39:05.304Z,3.80
2019-03-02T05:40:05.443Z,3.80
2019-03-02T05:41:08.211Z,3.80
2019-03-02T05:42:05.198Z,3.80
2019-03-02T05:43:05.332Z,3.80
2019-03-02T05:44:07.934Z,3.80
2019-03-02T05:45:04.880Z,3.80
2019-03-02T05:46:05.122Z,3.80
2019-03-02T05:47:05.313Z,3.80
2019-03-02T05:48:06.193Z,3.80
2019-03-02T05:49:08.025Z,3.80
2019-03-02T05:50:04.990Z,3.70
2019-03-02T05:51:06.686Z,3.80
2019-03-02T05:52:04.722Z,3.80
2019-03-02T05:53:04.905Z,3.80
2019-03-02T05:54:06.310Z,3.80
2019-03-02T05:55:08.228Z,3.80
2019-03-02T05:56:05.236Z,3.80
2019-03-02T05:57:05.531Z,3.80
2019-03-02T05:58:07.300Z,3.80
2019-03-02T05:59:07.891Z,3.80
2019-03-02T06:00:07.478Z,3.80
2019-03-02T06:01:08.027Z,3.80
2019-03-02T06:02:07.483Z,3.80
2019-03-02T06:03:05.442Z,3.80
2019-03-02T06:04:05.526Z,3.80
2019-03-02T06:05:05.673Z,3.80
2019-03-02T06:06:07.469Z,3.80
2019-03-02T06:07:08.010Z,3.80
2019-03-02T06:08:04.987Z,3.80
2019-03-02T06:09:07.926Z,3.70
2019-03-02T06:10:05.453Z,3.70
2019-03-02T06:11:06.741Z,3.70
2019-03-02T06:12:05.113Z,3.70
2019-03-02T06:13:05.228Z,3.70
2019-03-02T06:14:08.012Z,3.70
2019-03-02T06:15:07.535Z,3.70
2019-03-02T06:16:05.544Z,3.70
2019-03-02T06:17:04.765Z,3.70
2019-03-02T06:18:07.654Z,3.70
2019-03-02T06:19:07.329Z,3.70
2019-03-02T06:20:10.538Z,3.70
2019-03-02T06:21:07.618Z,3.70
2019-03-02T06:22:04.745Z,3.80
2019-03-02T06:23:05.009Z,3.70
2019-03-02T06:24:05.540Z,3.70
2019-03-02T06:25:04.659Z,3.70
2019-03-02T06:26:04.739Z,3.80
2019-03-02T06:27:07.699Z,3.70
2019-03-02T06:28:05.268Z,3.80
2019-03-02T06:29:08.082Z,3.80
2019-03-02T06:30:08.324Z,3.80
2019-03-02T06:31:07.847Z,3.80
2019-03-02T06:32:07.491Z,3.80
2019-03-02T06:33:08.497Z,3.80
2019-03-02T06:34:08.007Z,3.80
2019-03-02T06:35:05.011Z,3.80
2019-03-02T06:36:08.632Z,3.80
2019-03-02T06:37:07.761Z,3.70
2019-03-02T06:38:04.791Z,3.80
2019-03-02T06:39:07.720Z,3.80
2019-03-02T06:40:04.909Z,3.80
2019-03-02T06:41:05.015Z,3.80
2019-03-02T06:42:06.034Z,3.70
2019-03-02T06:43:04.825Z,3.70
2019-03-02T06:44:07.788Z,3.80
2019-03-02T06:45:12.552Z,3.80
2019-03-02T06:46:07.347Z,3.80
2019-03-02T06:47:05.786Z,3.80
2019-03-02T06:48:05.836Z,3.80
2019-03-02T06:49:07.356Z,3.80
2019-03-02T06:50:07.411Z,3.80
2019-03-02T06:51:07.686Z,3.80
2019-03-02T06:52:05.344Z,3.80
2019-03-02T06:53:05.551Z,3.80
2019-03-02T06:54:04.774Z,3.80
2019-03-02T06:55:07.426Z,3.80
2019-03-02T06:56:05.373Z,3.80
2019-03-02T06:57:10.644Z,3.80
2019-03-02T06:58:05.049Z,3.80
2019-03-02T06:59:05.228Z,3.80
2019-03-02T07:00:10.611Z,3.80
2019-03-02T07:01:04.889Z,3.80
2019-03-02T07:02:07.922Z,3.90
2019-03-02T07:03:06.637Z,3.80
2019-03-02T07:04:07.688Z,3.80
2019-03-02T07:05:07.539Z,3.90
2019-03-02T07:06:08.499Z,3.80
2019-03-02T07:07:10.682Z,3.80
2019-03-02T07:08:07.229Z,3.80
2019-03-02T07:09:05.866Z,3.80
2019-03-02T07:10:05.359Z,3.80
2019-03-02T07:11:05.409Z,3.80
2019-03-02T07:12:05.838Z,3.80
2019-03-02T07:13:05.287Z,3.80
2019-03-02T07:14:05.492Z,3.80
2019-03-02T07:15:04.945Z,3.80
2019-03-02T07:16:05.278Z,3.80
2019-03-02T07:17:08.015Z,3.80
2019-03-02T07:18:06.084Z,3.80
2019-03-02T07:19:05.007Z,3.90
2019-03-02T07:20:07.708Z,3.90
2019-03-02T07:21:06.498Z,3.80
2019-03-02T07:22:09.844Z,3.90
2019-03-02T07:23:07.867Z,3.90
2019-03-02T07:24:04.769Z,3.90
2019-03-02T07:25:06.061Z,3.90
2019-03-02T07:26:05.331Z,3.90
2019-03-02T07:27:07.995Z,3.90
2019-03-02T07:28:05.852Z,3.80
2019-03-02T07:29:05.343Z,3.90
2019-03-02T07:30:04.740Z,3.80
2019-03-02T07:31:04.954Z,3.90
2019-03-02T07:32:10.173Z,3.90
2019-03-02T07:33:05.235Z,3.90
2019-03-02T07:34:08.666Z,3.90
2019-03-02T07:35:05.659Z,3.90
2019-03-02T07:36:10.055Z,3.90
2019-03-02T07:37:05.682Z,3.90
2019-03-02T07:38:05.209Z,3.90
2019-03-02T07:39:05.371Z,3.90
2019-03-02T07:40:08.801Z,3.90
2019-03-02T07:41:05.056Z,3.90
2019-03-02T07:42:05.496Z,3.90
2019-03-02T07:43:05.928Z,3.90
2019-03-02T07:44:04.737Z,3.90
2019-03-02T07:45:04.896Z,3.90
2019-03-02T07:46:07.993Z,3.90
2019-03-02T07:47:04.798Z,3.90
2019-03-02T07:48:07.641Z,3.90
2019-03-02T07:49:13.002Z,3.90
2019-03-02T07:50:04.996Z,4.00
2019-03-02T07:51:06.296Z,3.90
2019-03-02T07:52:08.265Z,4.00
2019-03-02T07:53:05.310Z,4.00
2019-03-02T07:54:05.910Z,4.00
2019-03-02T07:55:07.803Z,4.00
2019-03-02T07:56:04.831Z,4.00
2019-03-02T07:57:08.400Z,4.00
2019-03-02T07:58:07.510Z,4.00
2019-03-02T07:59:05.545Z,4.00
2019-03-02T08:00:05.426Z,4.00
2019-03-02T08:01:12.763Z,4.00
2019-03-02T08:02:07.325Z,4.00
2019-03-02T08:03:05.768Z,4.00
2019-03-02T08:04:07.466Z,4.00
2019-03-02T08:05:05.482Z,4.00
2019-03-02T08:06:05.613Z,4.10
2019-03-02T08:07:05.734Z,4.10
2019-03-02T08:08:06.965Z,4.10
2019-03-02T08:09:05.285Z,4.10
2019-03-02T08:10:05.402Z,4.10
2019-03-02T08:11:05.558Z,4.10
2019-03-02T08:12:07.237Z,4.10
2019-03-02T08:13:05.551Z,4.10
2019-03-02T08:14:08.744Z,4.10
2019-03-02T08:15:05.066Z,4.10
2019-03-02T08:16:07.836Z,4.10
2019-03-02T08:17:04.967Z,4.10
2019-03-02T08:18:07.877Z,4.20
2019-03-02T08:19:05.036Z,4.20
2019-03-02T08:20:07.910Z,4.20
2019-03-02T08:21:05.042Z,4.20
2019-03-02T08:22:07.752Z,4.20
2019-03-02T08:23:07.543Z,4.20
2019-03-02T08:24:08.695Z,4.30
2019-03-02T08:25:07.329Z,4.20
2019-03-02T08:26:05.648Z,4.20
2019-03-02T08:27:04.781Z,4.20
2019-03-02T08:28:06.668Z,4.30
2019-03-02T08:29:04.868Z,4.30
2019-03-02T08:30:07.794Z,4.30
2019-03-02T08:31:05.462Z,4.30
2019-03-02T08:32:05.590Z,4.40
2019-03-02T08:33:07.381Z,4.40
2019-03-02T08:34:05.821Z,4.40
2019-03-02T08:35:04.773Z,4.40
2019-03-02T08:36:05.021Z,4.40
2019-03-02T08:37:05.139Z,4.40
2019-03-02T08:38:06.341Z,4.40
2019-03-02T08:39:06.719Z,4.40
2019-03-02T08:40:04.785Z,4.40
2019-03-02T08:41:07.487Z,4.40
2019-03-02T08:42:08.753Z,4.40
2019-03-02T08:43:04.918Z,4.50
2019-03-02T08:44:07.607Z,4.40
2019-03-02T08:45:05.639Z,4.40
2019-03-02T08:46:07.365Z,4.40
2019-03-02T08:47:09.018Z,4.50
2019-03-02T08:48:04.862Z,4.40
2019-03-02T08:49:06.370Z,4.50
2019-03-02T08:50:05.724Z,4.40
2019-03-02T08:51:07.589Z,4.50
2019-03-02T08:52:08.327Z,4.50
2019-03-02T08:53:05.428Z,4.50
2019-03-02T08:54:05.733Z,4.50
2019-03-02T08:55:07.539Z,4.50
2019-03-02T08:56:05.873Z,4.50
2019-03-02T08:57:07.356Z,4.50
2019-03-02T08:58:05.373Z,4.50
2019-03-02T08:59:05.686Z,4.50
2019-03-02T09:00:04.840Z,4.50
2019-03-02T09:01:07.656Z,4.50
2019-03-02T09:02:05.721Z,4.50
2019-03-02T09:03:04.832Z,4.60
2019-03-02T09:04:04.894Z,4.60
2019-03-02T09:05:05.030Z,4.60
2019-03-02T09:06:11.439Z,4.70
2019-03-02T09:07:07.719Z,4.60
2019-03-02T09:08:05.392Z,4.60
2019-03-02T09:09:08.139Z,4.70
2019-03-02T09:10:13.475Z,4.60
2019-03-02T09:11:07.825Z,4.70
2019-03-02T09:12:07.498Z,4.70
2019-03-02T09:13:05.574Z,4.70
2019-03-02T09:14:09.525Z,4.70
2019-03-02T09:15:05.545Z,4.70
2019-03-02T09:16:05.277Z,4.70
2019-03-02T09:17:04.822Z,4.80
2019-03-02T09:18:07.517Z,4.80
2019-03-02T09:19:05.481Z,4.80
2019-03-02T09:20:07.603Z,4.80
2019-03-02T09:21:08.891Z,4.80
2019-03-02T09:22:07.301Z,4.90
2019-03-02T09:23:05.275Z,4.80
2019-03-02T09:24:05.380Z,4.90
2019-03-02T09:25:05.263Z,4.90
2019-03-02T09:26:05.602Z,4.90
2019-03-02T09:27:04.840Z,4.90
2019-03-02T09:28:05.063Z,4.90
2019-03-02T09:29:05.257Z,5.00
2019-03-02T09:30:10.867Z,5.00
2019-03-02T09:31:04.913Z,5.00
2019-03-02T09:32:07.569Z,5.00
2019-03-02T09:33:08.085Z,5.10
2019-03-02T09:34:05.158Z,5.10
2019-03-02T09:35:05.463Z,5.10
2019-03-02T09:36:05.722Z,5.10
2019-03-02T09:37:08.107Z,5.20
2019-03-02T09:38:05.374Z,5.20
2019-03-02T09:39:05.517Z,5.20
2019-03-02T09:40:06.043Z,5.20
2019-03-02T09:41:05.434Z,5.20
2019-03-02T09:42:04.991Z,5.30
2019-03-02T09:43:07.816Z,5.30
2019-03-02T09:44:05.164Z,5.30
2019-03-02T09:45:07.607Z,5.30
2019-03-02T09:46:07.346Z,5.40
2019-03-02T09:47:08.509Z,5.30
2019-03-02T09:48:05.341Z,5.40
2019-03-02T09:49:07.314Z,5.40
2019-03-02T09:50:05.595Z,5.40
2019-03-02T09:51:04.762Z,5.50
2019-03-02T09:52:07.252Z,5.50
2019-03-02T09:53:05.288Z,5.40
2019-03-02T09:54:07.972Z,5.50
2019-03-02T09:55:07.512Z,5.50
2019-03-02T09:56:08.024Z,5.50
2019-03-02T09:57:04.990Z,5.50
2019-03-02T09:58:06.377Z,5.50
2019-03-02T09:59:08.152Z,5.60
2019-03-02T10:00:05.327Z,5.60
2019-03-02T10:01:07.982Z,5.60
2019-03-02T10:02:04.932Z,5.60
2019-03-02T10:03:05.344Z,5.60
2019-03-02T10:04:10.588Z,5.60
2019-03-02T10:05:05.624Z,5.60
2019-03-02T10:06:04.707Z,5.70
2019-03-02T10:07:04.973Z,5.70
2019-03-02T10:08:05.179Z,5.70
2019-03-02T10:09:04.701Z,5.70
2019-03-02T10:10:04.826Z,5.70
2019-03-02T10:11:06.003Z,5.70
2019-03-02T10:12:05.281Z,5.80
2019-03-02T10:13:05.435Z,5.80
2019-03-02T10:14:05.596Z,5.80
2019-03-02T10:15:04.709Z,5.80
2019-03-02T10:16:05.693Z,5.80
2019-03-02T10:17:07.483Z,5.90
2019-03-02T10:18:05.524Z,5.90
2019-03-02T10:19:05.662Z,6.00
2019-03-02T10:20:05.264Z,5.90
2019-03-02T10:21:05.713Z,6.00
2019-03-02T10:22:07.390Z,6.00
2019-03-02T10:23:05.609Z,6.00
2019-03-02T10:24:04.967Z,6.00
2019-03-02T10:25:10.282Z,6.00
2019-03-02T10:26:07.214Z,6.10
2019-03-02T10:27:06.005Z,6.10
2019-03-02T10:28:05.394Z,6.10
2019-03-02T10:29:06.786Z,6.20
2019-03-02T10:30:07.234Z,6.10
2019-03-02T10:31:06.042Z,6.10
2019-03-02T10:32:04.878Z,6.10
2019-03-02T10:33:05.043Z,6.20
2019-03-02T10:34:06.327Z,6.10
2019-03-02T10:35:05.559Z,6.20
2019-03-02T10:36:09.785Z,6.20
2019-03-02T10:37:07.138Z,6.20
2019-03-02T10:38:05.587Z,6.20
2019-03-02T10:39:09.828Z,6.20
2019-03-02T10:40:05.528Z,6.20
2019-03-02T10:41:04.835Z,6.30
2019-03-02T10:42:05.102Z,6.30
2019-03-02T10:43:07.363Z,6.20
2019-03-02T10:44:08.195Z,6.20
2019-03-02T10:45:10.294Z,6.20
2019-03-02T10:46:05.258Z,6.20
2019-03-02T10:47:05.467Z,6.20
2019-03-02T10:48:05.723Z,6.30
2019-03-02T10:49:06.798Z,6.20
2019-03-02T10:50:05.561Z,6.20
2019-03-02T10:51:04.728Z,6.20
2019-03-02T10:52:05.063Z,6.30
2019-03-02T10:53:05.277Z,6.20
2019-03-02T10:54:05.339Z,6.20
2019-03-02T10:55:08.185Z,6.20
2019-03-02T10:56:05.996Z,6.20
2019-03-02T10:57:07.777Z,6.20
2019-03-02T10:58:04.878Z,6.20
2019-03-02T10:59:07.727Z,6.20
2019-03-02T11:00:04.773Z,6.20
2019-03-02T11:01:08.506Z,6.20
2019-03-02T11:02:04.747Z,6.20
2019-03-02T11:03:04.938Z,6.20
2019-03-02T11:04:08.268Z,6.30
2019-03-02T11:05:04.953Z,6.30
2019-03-02T11:06:07.123Z,6.30
2019-03-02T11:07:09.060Z,6.40
2019-03-02T11:08:04.907Z,6.40
2019-03-02T11:09:05.033Z,6.40
2019-03-02T11:10:05.207Z,6.40
2019-03-02T11:11:05.496Z,6.40
2019-03-02T11:12:07.983Z,6.50
2019-03-02T11:13:07.669Z,6.50
2019-03-02T11:14:04.637Z,6.50
2019-03-02T11:15:07.539Z,6.50
2019-03-02T11:16:05.586Z,6.50
2019-03-02T11:17:04.790Z,6.50
2019-03-02T11:18:05.105Z,6.50
2019-03-02T11:19:07.805Z,6.60
2019-03-02T11:20:08.283Z,6.60
2019-03-02T11:21:05.386Z,6.60
2019-03-02T11:22:05.537Z,6.70
2019-03-02T11:23:04.675Z,6.70
2019-03-02T11:24:04.834Z,6.70
2019-03-02T11:25:05.326Z,6.70
2019-03-02T11:26:08.088Z,6.70
2019-03-02T11:27:09.599Z,6.70
2019-03-02T11:28:05.138Z,6.80
2019-03-02T11:29:05.335Z,6.70
2019-03-02T11:30:07.974Z,6.80
2019-03-02T11:31:04.976Z,6.80
2019-03-02T11:32:07.747Z,6.80
2019-03-02T11:33:04.685Z,6.80
2019-03-02T11:34:04.958Z,6.90
2019-03-02T11:35:06.756Z,6.90
2019-03-02T11:36:10.569Z,6.90
2019-03-02T11:37:04.769Z,6.90
2019-03-02T11:38:07.510Z,7.00
2019-03-02T11:39:08.051Z,7.00
2019-03-02T11:40:07.589Z,7.00
2019-03-02T11:41:09.071Z,7.00
2019-03-02T11:42:05.302Z,7.00
2019-03-02T11:43:05.525Z,7.00
2019-03-02T11:44:04.759Z,7.00
2019-03-02T11:45:04.983Z,7.00
2019-03-02T11:46:05.208Z,7.00
2019-03-02T11:47:05.719Z,7.00
2019-03-02T11:48:08.995Z,7.00
2019-03-02T11:49:04.964Z,7.00
2019-03-02T11:50:05.129Z,7.10
2019-03-02T11:51:07.849Z,7.10
2019-03-02T11:52:04.844Z,7.00
2019-03-02T11:53:07.540Z,7.10
2019-03-02T11:54:13.248Z,7.10
2019-03-02T11:55:05.329Z,7.10
2019-03-02T11:56:06.532Z,7.20
2019-03-02T11:57:07.740Z,7.20
2019-03-02T11:58:05.147Z,7.20
2019-03-02T11:59:05.881Z,7.20
2019-03-02T12:00:05.614Z,7.20
2019-03-02T12:01:04.875Z,7.20
2019-03-02T12:02:05.033Z,7.20
2019-03-02T12:03:12.907Z,7.20
2019-03-02T12:04:04.916Z,7.10
2019-03-02T12:05:09.149Z,7.10
2019-03-02T12:06:05.806Z,7.10
2019-03-02T12:07:05.237Z,7.10
2019-03-02T12:08:05.529Z,7.10
2019-03-02T12:09:04.751Z,7.10
2019-03-02T12:10:05.337Z,7.10
2019-03-02T12:11:06.941Z,7.10
2019-03-02T12:12:05.305Z,7.10
2019-03-02T12:13:07.637Z,7.10
2019-03-02T12:14:05.873Z,7.10
2019-03-02T12:15:04.947Z,7.10
2019-03-02T12:16:07.579Z,7.10
2019-03-02T12:17:06.035Z,7.10
2019-03-02T12:18:07.675Z,7.10
2019-03-02T12:19:05.335Z,7.10
2019-03-02T12:20:08.799Z,7.10
2019-03-02T12:21:04.732Z,7.10
2019-03-02T12:22:07.542Z,7.10
2019-03-02T12:23:05.643Z,7.10
2019-03-02T12:24:14.532Z,7.10
2019-03-02T12:25:05.652Z,7.10
2019-03-02T12:26:07.775Z,7.10
2019-03-02T12:27:05.401Z,7.10
2019-03-02T12:28:08.131Z,7.10
2019-03-02T12:29:05.189Z,7.10
2019-03-02T12:30:05.487Z,7.10
2019-03-02T12:31:08.280Z,7.10
2019-03-02T12:32:07.402Z,7.10
2019-03-02T12:33:07.300Z,7.10
2019-03-02T12:34:07.398Z,7.10
2019-03-02T12:35:08.218Z,7.00
2019-03-02T12:36:05.270Z,7.00
2019-03-02T12:37:07.975Z,7.00
2019-03-02T12:38:07.081Z,7.00
2019-03-02T12:39:06.439Z,7.00
2019-03-02T12:40:05.359Z,7.00
2019-03-02T12:41:05.531Z,7.00
2019-03-02T12:42:05.718Z,7.00
2019-03-02T12:43:07.431Z,7.00
2019-03-02T12:44:05.504Z,7.00
2019-03-02T12:45:10.173Z,7.00
2019-03-02T12:46:05.367Z,6.90
2019-03-02T12:47:05.234Z,6.90
2019-03-02T12:48:07.962Z,7.00
2019-03-02T12:49:06.846Z,6.90
2019-03-02T12:50:07.384Z,6.90
2019-03-02T12:51:05.328Z,6.90
2019-03-02T12:52:07.997Z,6.90
2019-03-02T12:53:07.571Z,6.90
2019-03-02T12:54:06.234Z,6.90
2019-03-02T12:55:05.484Z,6.90
2019-03-02T12:56:10.736Z,6.90
2019-03-02T12:57:04.870Z,6.90
2019-03-02T12:58:05.619Z,6.90
2019-03-02T12:59:04.707Z,6.90
2019-03-02T13:00:04.752Z,6.90
2019-03-02T13:01:05.100Z,7.00
2019-03-02T13:02:09.942Z,6.90
2019-03-02T13:03:05.027Z,6.90
2019-03-02T13:04:05.594Z,6.90
2019-03-02T13:05:07.641Z,6.90
2019-03-02T13:06:05.654Z,6.90
2019-03-02T13:07:10.226Z,6.90
2019-03-02T13:08:14.634Z,6.90
2019-03-02T13:09:05.279Z,6.90
2019-03-02T13:10:05.358Z,6.90
2019-03-02T13:11:05.693Z,6.90
2019-03-02T13:12:05.564Z,6.90
2019-03-02T13:13:05.018Z,6.90
2019-03-02T13:14:05.175Z,6.80
2019-03-02T13:15:05.841Z,6.80
2019-03-02T13:16:06.755Z,6.90
2019-03-02T13:17:07.620Z,6.90
2019-03-02T13:18:09.884Z,6.80